Time;durP1;ratioP1;P1;durP2;ratioP2;P2;SDS_P1;SDS_P2;PMS_P1;PMS_P2;Temp;Humidity;BMP_temperature;BMP_pressure;BME280_temperature;BME280_humidity;BME280_pressure;Samples;Min_cycle;Max_cycle;Signal;HPM_P1;HPM_P2
2023/09/08 00:01:28;;;;;;;7.97;5.15;;;;;;;23.75;48.82;101590.91;16130331;19;133258;-73
2023/09/08 00:06:50;;;;;;;9.23;5.53;;;;;;;23.74;48.58;101586.44;16123862;19;129392;-73
2023/09/08 00:12:12;;;;;;;9.02;5.10;;;;;;;23.73;48.79;101584.75;16125319;19;129883;-73
2023/09/08 00:17:36;;;;;;;7.88;4.82;;;;;;;23.73;48.55;101595.91;16128748;19;129625;-73
2023/09/08 00:22:58;;;;;;;8.27;4.60;;;;;;;23.72;48.60;101585.84;16123353;19;131461;-74
2023/09/08 00:28:20;;;;;;;8.05;4.80;;;;;;;23.70;48.48;101590.84;16121964;19;129529;-73
2023/09/08 00:33:43;;;;;;;6.95;4.75;;;;;;;23.70;48.50;101585.25;16115834;19;129471;-73
2023/09/08 00:39:06;;;;;;;8.55;5.15;;;;;;;23.69;48.61;101580.78;16120777;19;130863;-71
2023/09/08 00:44:28;;;;;;;9.43;4.78;;;;;;;23.68;48.34;101579.94;16117327;19;130352;-71
2023/09/08 00:49:51;;;;;;;12.02;4.75;;;;;;;23.66;48.36;101574.59;16118282;19;129967;-71
2023/09/08 00:55:13;;;;;;;8.18;4.72;;;;;;;23.66;48.25;101580.19;16122334;19;130884;-70
2023/09/08 01:00:35;;;;;;;7.70;4.30;;;;;;;23.66;48.49;101584.94;16118949;19;131695;-72
2023/09/08 01:05:57;;;;;;;6.65;4.68;;;;;;;23.65;48.57;101583.25;16122175;19;130967;-70
2023/09/08 01:11:21;;;;;;;6.60;4.35;;;;;;;23.64;48.41;101582.41;16118243;19;129404;-70
2023/09/08 01:16:43;;;;;;;7.25;4.40;;;;;;;23.63;48.47;101583.50;16122012;19;129858;-72
2023/09/08 01:22:23;;;;;;;8.45;4.70;;;;;;;23.64;48.13;101596.38;16124544;19;130212;-71
2023/09/08 01:27:52;;;;;;;7.20;4.53;;;;;;;23.63;48.48;101585.47;16119808;19;129421;-71
2023/09/08 01:33:14;;;;;;;7.38;4.55;;;;;;;23.61;48.79;101582.97;16120454;19;129590;-71
2023/09/08 01:38:36;;;;;;;6.95;4.45;;;;;;;23.62;48.24;101586.56;16121010;19;129194;-72
2023/09/08 01:43:59;;;;;;;7.90;4.68;;;;;;;23.61;48.50;101587.69;16121091;19;131622;-72
2023/09/08 01:49:22;;;;;;;5.70;4.22;;;;;;;23.61;48.52;101588.53;16123416;19;130814;-72
2023/09/08 01:54:44;;;;;;;5.80;3.95;;;;;;;23.60;48.39;101584.06;16124637;19;129997;-73
2023/09/08 02:00:06;;;;;;;5.55;3.92;;;;;;;23.61;48.63;101576.50;16123843;19;129294;-73
2023/09/08 02:05:28;;;;;;;7.40;4.07;;;;;;;23.60;48.42;101581.28;16124827;19;132504;-74
2023/09/08 02:10:51;;;;;;;6.00;4.03;;;;;;;23.59;48.40;101584.31;16124391;19;130238;-75
2023/09/08 02:16:14;;;;;;;5.22;3.80;;;;;;;23.58;48.42;101583.47;16125283;19;129103;-76
2023/09/08 02:21:36;;;;;;;5.90;4.25;;;;;;;23.57;48.41;101587.34;16123724;19;129554;-77
2023/09/08 02:26:59;;;;;;;6.28;3.92;;;;;;;23.57;48.52;101581.75;16125232;19;129944;-76
2023/09/08 02:32:21;;;;;;;5.47;3.88;;;;;;;23.55;48.39;101575.59;16121372;19;130025;-76
2023/09/08 02:37:43;;;;;;;5.75;3.63;;;;;;;23.55;48.46;101578.38;16124871;19;129486;-76
2023/09/08 02:43:05;;;;;;;5.20;3.67;;;;;;;23.53;48.64;101569.41;16119034;19;131031;-76
2023/09/08 02:48:27;;;;;;;4.85;3.80;;;;;;;23.54;48.57;101573.06;16119629;19;130742;-76
2023/09/08 02:53:48;;;;;;;4.38;3.58;;;;;;;23.54;48.57;101570.28;16128692;19;134558;-74
2023/09/08 02:59:10;;;;;;;6.13;4.03;;;;;;;23.53;48.60;101574.19;16130490;19;129292;-76
2023/09/08 03:04:32;;;;;;;4.72;3.45;;;;;;;23.53;48.54;101576.97;16128151;19;132038;-75
2023/09/08 03:09:54;;;;;;;5.03;3.47;;;;;;;23.52;48.47;101573.31;16125967;19;131932;-73
2023/09/08 03:15:16;;;;;;;4.45;3.58;;;;;;;23.50;48.57;101564.38;16128944;19;130179;-74
2023/09/08 03:20:40;;;;;;;4.85;3.60;;;;;;;23.49;48.43;101563.53;16128399;19;130452;-72
2023/09/08 03:26:02;;;;;;;6.50;3.33;;;;;;;23.49;48.87;101562.69;16130391;19;131296;-73
2023/09/08 03:31:24;;;;;;;6.25;3.72;;;;;;;23.48;48.69;101556.25;16126049;19;129771;-73
2023/09/08 03:36:46;;;;;;;5.43;3.75;;;;;;;23.47;48.86;101553.75;16130151;19;130115;-73
2023/09/08 03:42:08;;;;;;;6.72;3.80;;;;;;;23.47;48.42;101553.75;16132828;19;133742;-74
2023/09/08 03:47:30;;;;;;;4.07;3.28;;;;;;;23.47;48.50;101548.16;16128626;19;130831;-73
2023/09/08 03:52:53;;;;;;;5.65;3.17;;;;;;;23.46;48.78;101547.28;16129099;19;129643;-73
2023/09/08 03:58:15;;;;;;;5.25;3.70;;;;;;;23.46;48.59;101540.88;16127304;19;129598;-74
2023/09/08 04:03:37;;;;;;;4.03;3.28;;;;;;;23.45;48.52;101548.41;16126436;19;130972;-74
2023/09/08 04:09:00;;;;;;;5.35;3.60;;;;;;;23.45;48.64;101550.38;16125568;19;131838;-74
2023/09/08 04:14:26;;;;;;;6.20;3.25;;;;;;;23.44;48.66;101543.94;16126587;19;131938;-73
2023/09/08 04:19:49;;;;;;;3.97;3.13;;;;;;;23.43;48.54;101542.25;16126927;19;134040;-74
2023/09/08 04:25:11;;;;;;;4.28;3.30;;;;;;;23.43;48.63;101544.19;16123568;19;130190;-74
2023/09/08 04:30:33;;;;;;;4.35;2.83;;;;;;;23.42;48.72;101545.28;16123594;19;129197;-73
2023/09/08 04:35:55;;;;;;;3.80;3.30;;;;;;;23.42;48.61;101539.72;16115867;19;129615;-73
2023/09/08 04:41:17;;;;;;;3.38;2.90;;;;;;;23.42;48.39;101542.50;16115033;19;130977;-74
2023/09/08 04:46:38;;;;;;;4.30;3.00;;;;;;;23.41;48.63;101546.41;16114526;19;131254;-73
2023/09/08 04:52:00;;;;;;;3.53;2.88;;;;;;;23.40;48.50;101548.38;16118625;19;132309;-74
2023/09/08 04:57:22;;;;;;;3.75;3.10;;;;;;;23.40;48.53;101553.94;16121172;19;129715;-74
2023/09/08 05:02:44;;;;;;;4.75;3.30;;;;;;;23.39;48.37;101559.78;16119776;19;130742;-72
2023/09/08 05:08:07;;;;;;;4.22;3.15;;;;;;;23.38;48.49;101549.75;16120157;19;130235;-73
2023/09/08 05:13:28;;;;;;;3.83;2.92;;;;;;;23.38;48.54;101560.91;16118204;19;131491;-75
2023/09/08 05:18:52;;;;;;;3.78;3.10;;;;;;;23.37;48.63;101560.06;16121266;19;129888;-72
2023/09/08 05:24:14;;;;;;;11.45;4.22;;;;;;;23.33;47.73;101565.31;16117453;19;131277;-74
2023/09/08 05:29:36;;;;;;;9.75;5.13;;;;;;;23.24;47.00;101564.13;16116222;19;130246;-73
2023/09/08 05:34:59;;;;;;;10.43;5.30;;;;;;;23.15;46.58;101562.88;16118367;19;132002;-73
2023/09/08 05:40:24;;;;;;;8.27;5.65;;;;;;;23.04;46.49;101573.09;16116053;19;129534;-74
2023/09/08 05:45:46;;;;;;;8.98;5.97;;;;;;;22.99;46.72;101573.03;16114940;19;131090;-72
2023/09/08 05:51:09;;;;;;;8.70;5.82;;;;;;;22.97;46.75;101581.66;16117780;19;130648;-73
2023/09/08 05:56:31;;;;;;;9.80;6.20;;;;;;;22.93;46.58;101577.72;16112772;19;129503;-73
2023/09/08 06:01:53;;;;;;;11.98;5.95;;;;;;;22.93;46.59;101576.88;16140742;19;130529;-72
2023/09/08 06:07:15;;;;;;;6.70;5.78;;;;;;;22.93;46.91;101588.03;16124818;19;129800;-72
2023/09/08 06:12:37;;;;;;;13.27;6.70;;;;;;;22.93;46.97;101593.63;16120066;19;129343;-72
2023/09/08 06:17:59;;;;;;;10.20;5.80;;;;;;;22.95;46.94;101586.66;16115142;19;129534;-72
2023/09/08 06:23:21;;;;;;;14.30;6.30;;;;;;;22.96;47.11;101588.34;16115072;19;131907;-72
2023/09/08 06:28:43;;;;;;;13.63;6.22;;;;;;;22.96;47.33;101593.94;16139940;19;134182;-70
2023/09/08 06:34:05;;;;;;;7.70;5.63;;;;;;;22.99;46.82;101593.41;16112961;19;130859;-69
2023/09/08 06:39:28;;;;;;;7.47;5.60;;;;;;;23.03;47.28;101605.72;16108766;19;130877;-69
2023/09/08 06:44:50;;;;;;;8.50;5.03;;;;;;;23.05;47.22;101597.94;16109175;19;130913;-70
2023/09/08 06:50:15;;;;;;;14.45;5.47;;;;;;;23.10;47.48;101604.69;16111427;19;131979;-70
2023/09/08 06:55:37;;;;;;;;;;;;;;;23.10;47.27;101605.53;16106369;19;131688;-70
2023/09/08 07:00:59;;;;;;;8.32;4.93;;;;;;;23.15;47.20;101607.53;16104745;19;131250;-71
2023/09/08 07:06:22;;;;;;;11.48;5.40;;;;;;;23.16;47.30;101600.84;16105757;19;130026;-71
2023/09/08 07:11:44;;;;;;;7.95;4.97;;;;;;;23.18;47.29;101604.22;16115312;19;129997;-71
2023/09/08 07:17:06;;;;;;;5.63;4.75;;;;;;;23.19;47.29;101604.00;16111680;19;129389;-72
2023/09/08 07:22:28;;;;;;;8.32;5.03;;;;;;;23.22;47.56;101607.34;16116675;19;129387;-71
2023/09/08 07:27:52;;;;;;;8.20;4.82;;;;;;;23.23;47.43;101621.06;16115116;19;130611;-71
2023/09/08 07:33:14;;;;;;;7.00;4.47;;;;;;;23.25;47.41;101615.19;16113347;19;129801;-71
2023/09/08 07:38:37;;;;;;;6.45;4.28;;;;;;;23.26;47.34;101611.31;16123380;19;129517;-71
2023/09/08 07:43:58;;;;;;;6.95;4.13;;;;;;;23.28;47.50;101609.94;16130978;19;130466;-70
2023/09/08 07:49:21;;;;;;;10.15;4.47;;;;;;;23.28;47.05;101612.72;16133144;19;129492;-70
2023/09/08 07:54:43;;;;;;;7.03;4.60;;;;;;;23.31;47.25;101612.19;16133013;19;130594;-70
2023/09/08 08:00:06;;;;;;;5.40;4.30;;;;;;;23.31;47.44;101605.78;16209897;19;128337;-71
2023/09/08 08:05:28;;;;;;;6.88;4.22;;;;;;;23.32;47.52;101602.72;16205545;19;130428;-70
2023/09/08 08:10:50;;;;;;;7.97;3.90;;;;;;;23.33;47.37;101603.56;16206167;19;130200;-69
2023/09/08 08:16:12;;;;;;;6.47;4.40;;;;;;;23.35;47.47;101602.22;16208824;19;128824;-70
2023/09/08 08:21:34;;;;;;;5.97;4.25;;;;;;;23.34;47.19;101606.09;16205254;19;129418;-70
2023/09/08 08:26:55;;;;;;;5.80;4.30;;;;;;;23.35;47.46;101607.78;16205725;19;129624;-70
2023/09/08 08:32:17;;;;;;;5.93;3.88;;;;;;;23.35;47.69;101616.16;16189731;19;129258;-65
2023/09/08 08:37:40;;;;;;;5.88;3.55;;;;;;;23.43;47.83;101616.78;16187453;19;129434;-60
2023/09/08 08:43:03;;;;;;;6.03;3.30;;;;;;;23.49;47.73;101601.78;16195650;19;130997;-66
2023/09/08 08:48:27;;;;;;;6.88;3.40;;;;;;;23.57;48.31;101608.84;16197085;19;130101;-64
2023/09/08 08:53:49;;;;;;;8.18;3.80;;;;;;;23.63;48.52;101611.44;16201552;19;129183;-68
2023/09/08 08:59:12;;;;;;;5.35;3.30;;;;;;;23.71;48.23;101614.88;16135311;19;129230;-63
2023/09/08 09:04:37;;;;;;;7.57;3.67;;;;;;;23.75;48.07;101613.25;16132802;19;129440;-62
2023/09/08 09:09:59;;;;;;;6.63;3.83;;;;;;;23.80;48.15;101616.06;16133598;19;131500;-62
2023/09/08 09:15:32;;;;;;;4.63;3.70;;;;;;;23.87;48.44;101621.44;16124327;19;129406;-63
2023/09/08 09:20:55;;;;;;;4.93;3.70;;;;;;;23.90;48.27;101616.16;16127142;19;130030;-62
2023/09/08 09:26:25;;;;;;;5.75;4.07;;;;;;;23.96;48.32;101617.06;16129624;19;129507;-72
2023/09/08 09:31:55;;;;;;;5.10;4.13;;;;;;;24.02;48.29;101615.13;16126114;19;130174;-67
2023/09/08 09:37:18;;;;;;;9.35;3.65;;;;;;;24.03;48.35;101606.50;16129743;19;129042;-68
2023/09/08 09:42:40;;;;;;;6.78;3.95;;;;;;;24.07;48.34;101621.63;16129191;19;129717;-68
2023/09/08 09:48:04;;;;;;;4.88;3.50;;;;;;;24.09;48.11;101608.22;16132348;19;129773;-77
2023/09/08 09:53:28;;;;;;;8.43;4.05;;;;;;;24.11;48.45;101608.81;16127428;19;129622;-61
2023/09/08 09:58:53;;;;;;;9.05;4.50;;;;;;;24.14;48.41;101607.41;16125494;19;129359;-65
2023/09/08 10:04:16;;;;;;;12.82;4.63;;;;;;;24.16;48.61;101607.16;16126997;19;130862;-61
2023/09/08 10:09:38;;;;;;;15.43;4.28;;;;;;;24.17;48.39;101606.06;16124896;19;130174;-64
2023/09/08 10:15:02;;;;;;;11.05;4.13;;;;;;;24.17;48.50;101600.47;16125347;19;130544;-66
2023/09/08 10:20:26;;;;;;;79.57;37.87;;;;;;;24.17;48.56;101598.50;16130405;19;129347;-66
2023/09/08 10:25:54;;;;;;;78.47;39.28;;;;;;;24.19;48.74;101610.25;16126365;19;129948;-66
2023/09/08 10:31:17;;;;;;;69.35;36.35;;;;;;;24.24;48.75;101601.97;16125852;19;129646;-65
2023/09/08 10:36:39;;;;;;;68.22;35.15;;;;;;;24.27;48.92;101593.00;16119209;19;129281;-64
2023/09/08 10:42:17;;;;;;;59.30;32.47;;;;;;;24.33;48.73;101596.69;16121962;19;129991;-66
2023/09/08 10:47:57;;;;;;;54.38;30.15;;;;;;;24.34;48.96;101595.56;16115401;19;130163;-65
2023/09/08 10:53:21;;;;;;;58.60;28.52;;;;;;;24.33;49.00;101593.06;16112239;19;130087;-59
2023/09/08 10:58:43;;;;;;;51.72;27.73;;;;;;;24.33;49.18;101593.06;16114757;19;129524;-71
2023/09/08 11:04:08;;;;;;;44.47;25.20;;;;;;;24.35;49.03;101602.03;16114387;19;129538;-60
2023/09/08 11:09:36;;;;;;;50.95;24.38;;;;;;;24.36;49.17;101589.72;16116415;19;129575;-63
2023/09/08 11:15:00;;;;;;;47.50;23.15;;;;;;;24.36;49.10;101596.16;16130042;19;129535;-63
2023/09/08 11:20:26;;;;;;;39.30;22.23;;;;;;;24.37;49.46;101595.03;16135430;19;129856;-60
2023/09/08 11:25:53;;;;;;;39.75;21.10;;;;;;;24.39;49.33;101594.75;16131843;19;133944;-65
2023/09/08 11:31:15;;;;;;;40.22;19.67;;;;;;;24.39;49.48;101594.75;16133611;19;129544;-69
2023/09/08 11:36:41;;;;;;;37.25;18.83;;;;;;;24.40;49.69;101597.31;16133793;19;129467;-61
2023/09/08 11:42:03;;;;;;;36.58;18.70;;;;;;;24.41;49.43;101600.94;16132025;19;130910;-69
2023/09/08 11:47:25;;;;;;;35.50;17.85;;;;;;;24.43;49.44;101593.13;16130524;19;129776;-62
2023/09/08 11:52:49;;;;;;;30.40;16.85;;;;;;;24.48;49.71;101590.38;16125681;19;131556;-56
2023/09/08 11:58:11;;;;;;;31.10;16.88;;;;;;;24.52;49.43;101588.69;16127343;19;129741;-75
2023/09/08 12:03:33;;;;;;;29.33;15.75;;;;;;;24.57;49.24;101585.94;16126780;19;130821;-58
2023/09/08 12:09:02;;;;;;;31.35;15.88;;;;;;;24.64;49.02;101582.03;16122571;19;129289;-63
2023/09/08 12:14:26;;;;;;;26.52;14.43;;;;;;;24.67;49.52;101576.75;16125875;19;130161;-62
2023/09/08 12:19:48;;;;;;;26.57;13.70;;;;;;;24.72;49.37;101578.75;16129700;19;131046;-58
2023/09/08 12:25:10;;;;;;;24.27;13.60;;;;;;;24.75;49.13;101578.16;16124427;19;129925;-55
2023/09/08 12:30:33;;;;;;;25.90;13.65;;;;;;;24.76;49.11;101574.25;16127127;19;130289;-60
2023/09/08 12:35:54;;;;;;;22.40;12.55;;;;;;;24.79;49.10;101575.69;16125323;19;129727;-61
2023/09/08 12:41:16;;;;;;;27.65;11.90;;;;;;;24.80;49.10;101578.22;16124141;19;129821;-59
2023/09/08 12:46:39;;;;;;;26.52;13.02;;;;;;;24.81;49.18;101571.50;16123793;19;129521;-54
2023/09/08 12:52:01;;;;;;;16.10;10.52;;;;;;;24.84;49.43;101568.16;16124657;19;129829;-75
2023/09/08 12:57:23;;;;;;;22.10;10.73;;;;;;;24.86;49.12;101570.66;16120811;19;130106;-65
2023/09/08 13:02:46;;;;;;;20.38;10.40;;;;;;;24.83;48.99;101558.06;16119614;19;130134;-64
2023/09/08 13:08:08;;;;;;;20.27;9.73;;;;;;;24.82;48.90;101562.00;16119564;19;130821;-64
2023/09/08 13:13:31;;;;;;;16.98;8.82;;;;;;;24.81;48.95;101551.91;16119675;19;129582;-65
2023/09/08 13:18:53;;;;;;;14.70;9.15;;;;;;;24.80;49.05;101547.44;16122191;19;129514;-65
2023/09/08 13:24:15;;;;;;;11.38;7.90;;;;;;;24.79;49.23;101545.75;16123223;19;130587;-65
2023/09/08 13:29:37;;;;;;;14.43;8.48;;;;;;;24.79;48.94;101545.75;16120502;19;129172;-65
2023/09/08 13:35:00;;;;;;;15.55;7.93;;;;;;;24.79;48.88;101537.34;16120956;19;131079;-64
2023/09/08 13:40:22;;;;;;;14.65;7.70;;;;;;;24.80;48.81;101541.81;16125002;19;129845;-65
2023/09/08 13:45:44;;;;;;;15.70;6.97;;;;;;;24.79;49.04;101537.34;16122972;19;130754;-65
2023/09/08 13:51:06;;;;;;;12.27;6.80;;;;;;;24.78;48.76;101535.66;16125800;19;130612;-65
2023/09/08 13:56:31;;;;;;;12.85;6.85;;;;;;;24.80;48.92;101524.22;16123205;19;130319;-65
2023/09/08 14:01:54;;;;;;;13.85;7.10;;;;;;;24.79;48.99;101528.94;16110708;19;129446;-64
2023/09/08 14:07:36;;;;;;;10.23;6.28;;;;;;;24.79;48.65;101526.16;16113702;19;130916;-65
2023/09/08 14:13:07;;;;;;;11.15;5.80;;;;;;;24.79;48.70;101520.56;16117534;19;130331;-65
2023/09/08 14:18:30;;;;;;;12.88;6.43;;;;;;;24.79;49.06;101517.75;16118825;19;131102;-65
2023/09/08 14:23:55;;;;;;;13.25;5.63;;;;;;;24.80;48.95;101516.66;16114585;19;129517;-65
2023/09/08 14:29:16;;;;;;;16.02;6.10;;;;;;;24.81;48.81;101515.53;16118158;19;129506;-66
2023/09/08 14:34:38;;;;;;;21.70;7.25;;;;;;;24.82;49.86;101514.41;16112654;19;131161;-66
2023/09/08 14:40:01;;;;;;;13.98;6.03;;;;;;;24.84;50.16;101515.00;16116491;19;129406;-65
2023/09/08 14:45:22;;;;;;;14.02;6.25;;;;;;;24.85;50.32;101510.22;16091957;19;130132;-67
2023/09/08 14:50:44;;;;;;;17.88;6.82;;;;;;;24.82;50.29;101500.44;16115612;19;129795;-67
2023/09/08 14:56:07;;;;;;;19.58;5.93;;;;;;;24.78;50.11;101504.88;16117864;19;129423;-67
2023/09/08 15:01:29;;;;;;;12.15;5.88;;;;;;;24.75;50.16;101505.41;16115464;19;130597;-68
2023/09/08 15:06:51;;;;;;;15.75;6.25;;;;;;;24.71;50.41;101498.72;16113844;19;131125;-62
2023/09/08 15:12:13;;;;;;;10.88;6.10;;;;;;;24.71;50.00;101507.09;16114885;19;129376;-63
2023/09/08 15:17:35;;;;;;;14.77;6.00;;;;;;;24.69;50.00;101500.94;16107909;19;129862;-63
2023/09/08 15:22:57;;;;;;;15.90;5.75;;;;;;;24.66;50.24;101502.34;16113730;19;130939;-63
2023/09/08 15:28:20;;;;;;;12.18;5.55;;;;;;;24.64;50.37;101500.91;16113106;19;131103;-62
2023/09/08 15:33:42;;;;;;;9.20;5.18;;;;;;;24.63;50.22;101502.88;16111795;19;130952;-64
2023/09/08 15:39:04;;;;;;;10.43;5.13;;;;;;;24.62;50.33;101489.13;16114259;19;130081;-63
2023/09/08 15:44:26;;;;;;;21.05;5.30;;;;;;;24.60;50.23;101486.63;16113624;19;129669;-63
2023/09/08 15:49:48;;;;;;;10.00;5.20;;;;;;;24.60;50.15;101485.81;16108635;19;129630;-64
2023/09/08 15:55:10;;;;;;;9.98;5.20;;;;;;;24.58;50.00;101488.84;16111659;19;130138;-64
2023/09/08 16:00:32;;;;;;;14.57;5.32;;;;;;;24.58;50.37;101489.72;16122954;19;129683;-63
2023/09/08 16:05:54;;;;;;;10.63;5.40;;;;;;;24.57;50.03;101482.44;16124941;19;131026;-64
2023/09/08 16:11:16;;;;;;;13.02;4.82;;;;;;;24.57;50.12;101482.44;16126335;19;131066;-63
2023/09/08 16:16:40;;;;;;;52.00;17.98;;;;;;;24.64;51.62;101484.13;16124265;19;129739;-62
2023/09/08 16:22:02;;;;;;;61.10;27.60;;;;;;;24.72;52.30;101480.81;16124176;19;129613;-64
2023/09/08 16:27:24;;;;;;;47.80;17.92;;;;;;;24.76;52.51;101473.53;16125492;19;130001;-64
2023/09/08 16:32:46;;;;;;;47.70;14.50;;;;;;;24.79;52.36;101477.75;16120864;19;131477;-65
2023/09/08 16:38:09;;;;;;;43.42;13.00;;;;;;;24.79;52.20;101484.19;16116918;19;133950;-66
2023/09/08 16:43:31;;;;;;;31.58;12.30;;;;;;;24.78;52.03;101488.09;16120043;19;129826;-65
2023/09/08 16:48:53;;;;;;;30.90;10.48;;;;;;;24.77;51.88;101488.38;16121617;19;131081;-63
2023/09/08 16:54:16;;;;;;;33.25;9.35;;;;;;;24.76;52.32;101490.31;16091698;19;131659;-62
2023/09/08 16:59:38;;;;;;;28.50;9.15;;;;;;;24.75;52.11;101490.59;16116436;19;130340;-62
2023/09/08 17:05:03;;;;;;;35.45;9.25;;;;;;;24.72;51.80;101490.03;16104335;19;131904;-62
2023/09/08 17:10:26;;;;;;;26.92;9.00;;;;;;;24.71;51.86;101485.56;16121783;19;129940;-62
2023/09/08 17:15:48;;;;;;;24.02;7.68;;;;;;;24.70;51.87;101485.84;16122937;19;130652;-62
2023/09/08 17:21:10;;;;;;;21.33;7.70;;;;;;;24.68;51.74;101488.88;16116436;19;129798;-63
2023/09/08 17:26:32;;;;;;;22.58;7.72;;;;;;;24.67;51.99;101476.03;16127180;19;129599;-61
2023/09/08 17:31:54;;;;;;;25.98;7.30;;;;;;;24.66;52.13;101479.94;16131023;19;131684;-65
2023/09/08 17:37:16;;;;;;;20.83;6.55;;;;;;;24.71;52.56;101479.13;16129197;19;130144;-60
2023/09/08 17:42:38;;;;;;;22.00;5.70;;;;;;;24.76;52.93;101484.72;16133450;19;131148;-67
2023/09/08 17:48:00;;;;;;;21.15;5.50;;;;;;;24.77;52.99;101480.81;16159385;19;129620;-67
2023/09/08 17:53:22;;;;;;;14.02;4.95;;;;;;;24.72;52.57;101490.03;16200719;19;129305;-67
2023/09/08 17:58:44;;;;;;;10.98;5.10;;;;;;;24.68;52.84;101483.28;16194037;19;128724;-52
2023/09/08 18:04:06;;;;;;;15.70;5.55;;;;;;;24.69;52.80;101498.13;16199366;19;128259;-66
2023/09/08 18:09:29;;;;;;;19.13;5.88;;;;;;;24.67;53.03;101503.16;16197119;19;130663;-68
2023/09/08 18:14:54;;;;;;;12.90;5.25;;;;;;;24.64;52.91;101498.97;16195665;19;130132;-69
2023/09/08 18:20:16;;;;;;;16.02;4.60;;;;;;;24.62;52.74;101505.94;16192964;19;130407;-67
2023/09/08 18:25:38;;;;;;;9.45;4.68;;;;;;;24.58;53.10;101506.50;16197353;19;129373;-68
2023/09/08 18:31:00;;;;;;;14.45;5.22;;;;;;;24.56;52.68;101510.66;16197887;19;128141;-68
2023/09/08 18:36:21;;;;;;;32.33;5.90;;;;;;;24.54;53.04;101524.09;16197027;19;128439;-66
2023/09/08 18:41:43;;;;;;;22.95;5.60;;;;;;;24.53;52.89;101519.63;16151280;19;133962;-67
2023/09/08 18:47:05;;;;;;;28.50;5.40;;;;;;;24.51;52.75;101525.47;16120125;19;130634;-66
2023/09/08 18:52:28;;;;;;;17.20;5.07;;;;;;;24.51;52.93;101527.44;16118338;19;130913;-68
2023/09/08 18:57:50;;;;;;;18.08;5.13;;;;;;;24.49;52.89;101536.13;16124382;19;131447;-65
2023/09/08 19:03:12;;;;;;;17.90;5.22;;;;;;;24.48;52.80;101540.03;16186177;19;130099;-68
2023/09/08 19:08:34;;;;;;;15.20;4.30;;;;;;;24.47;53.09;101549.53;16194707;19;129307;-67
2023/09/08 19:13:56;;;;;;;13.85;4.90;;;;;;;24.46;52.83;101542.25;16148029;19;129522;-66
2023/09/08 19:19:18;;;;;;;14.05;4.53;;;;;;;24.46;52.59;101550.63;16114630;19;131605;-70
2023/09/08 19:24:44;;;;;;;17.00;4.47;;;;;;;24.46;52.90;101553.44;16115642;19;129909;-70
2023/09/08 19:30:07;;;;;;;14.35;4.68;;;;;;;24.45;52.60;101554.53;16118326;19;131287;-71
2023/09/08 19:35:29;;;;;;;12.32;4.10;;;;;;;24.45;52.87;101551.75;16128885;19;131073;-70
2023/09/08 19:41:03;;;;;;;11.55;4.82;;;;;;;24.47;52.82;101560.72;16133670;19;130793;-70
2023/09/08 19:46:25;;;;;;;12.48;4.18;;;;;;;24.45;52.60;101551.75;16138401;19;129707;-71
2023/09/08 19:51:46;;;;;;;17.50;4.60;;;;;;;24.44;52.73;101550.06;16138568;19;130071;-71
2023/09/08 19:57:09;;;;;;;13.32;4.28;;;;;;;24.43;52.58;101560.38;16137816;19;130092;-69
2023/09/08 20:02:31;;;;;;;12.35;4.25;;;;;;;24.43;52.80;101560.38;16135720;19;129639;-72
2023/09/08 20:07:53;;;;;;;11.50;4.20;;;;;;;24.43;52.54;101553.97;16135893;19;129573;-70
2023/09/08 20:13:15;;;;;;;12.85;4.55;;;;;;;24.44;52.65;101550.06;16132380;19;129591;-70
2023/09/08 20:18:37;;;;;;;8.98;4.20;;;;;;;24.45;52.30;101562.06;16135674;19;129491;-69
2023/09/08 20:24:01;;;;;;;14.98;4.55;;;;;;;24.42;52.77;101546.69;16129605;19;129628;-70
2023/09/08 20:29:27;;;;;;;10.18;4.78;;;;;;;24.43;52.64;101548.38;16127504;19;131238;-70
2023/09/08 20:34:50;;;;;;;10.82;4.22;;;;;;;24.43;52.58;101554.78;16124495;19;132280;-69
2023/09/08 20:40:12;;;;;;;12.75;4.35;;;;;;;24.43;52.68;101556.75;16129905;19;130144;-70
2023/09/08 20:45:34;;;;;;;15.70;4.53;;;;;;;24.43;52.30;101559.56;16124760;19;131023;-68
2023/09/08 20:51:06;;;;;;;16.17;4.20;;;;;;;24.44;52.49;101558.44;16116922;19;131491;-67
2023/09/08 20:56:28;;;;;;;11.02;4.40;;;;;;;24.43;52.53;101565.16;16118333;19;130466;-59
2023/09/08 21:01:50;;;;;;;48.47;7.50;;;;;;;24.41;52.14;101556.19;16113066;19;131675;-59
2023/09/08 21:07:12;;;;;;;17.27;5.18;;;;;;;24.41;52.51;101553.38;16117476;19;131290;-59
2023/09/08 21:12:34;;;;;;;16.52;5.25;;;;;;;24.40;52.27;101560.09;16118463;19;129877;-59
2023/09/08 21:17:57;;;;;;;20.73;5.22;;;;;;;24.38;52.36;101559.50;16115424;19;131229;-59
2023/09/08 21:23:19;;;;;;;16.15;4.53;;;;;;;24.36;52.24;101568.19;16110286;19;129560;-60
2023/09/08 21:28:41;;;;;;;19.98;4.95;;;;;;;24.35;52.29;101565.66;16114322;19;129730;-59
2023/09/08 21:34:03;;;;;;;12.45;4.15;;;;;;;24.33;52.40;101565.91;16116770;19;130762;-58
2023/09/08 21:39:25;;;;;;;10.55;4.68;;;;;;;24.32;51.97;101552.22;16118210;19;130863;-59
2023/09/08 21:44:47;;;;;;;14.85;4.88;;;;;;;24.32;52.05;101557.81;16117594;19;130586;-60
2023/09/08 21:50:09;;;;;;;11.75;4.63;;;;;;;24.30;52.24;101563.69;16118853;19;131455;-59
2023/09/08 21:55:31;;;;;;;13.45;4.45;;;;;;;24.28;52.09;101551.94;16110681;19;130307;-60
2023/09/08 22:00:53;;;;;;;8.52;4.38;;;;;;;24.26;52.21;101546.59;16117526;19;129617;-61
2023/09/08 22:06:15;;;;;;;9.75;4.03;;;;;;;24.26;52.32;101546.59;16114778;19;131438;-60
2023/09/08 22:11:36;;;;;;;11.50;5.15;;;;;;;24.25;52.01;101547.69;16113024;19;130159;-60
2023/09/08 22:16:59;;;;;;;13.75;5.63;;;;;;;24.24;51.79;101548.84;16110200;19;130273;-60
2023/09/08 22:22:21;;;;;;;11.82;4.72;;;;;;;24.23;52.09;101549.06;16112637;19;131574;-60
2023/09/08 22:27:43;;;;;;;9.90;4.82;;;;;;;24.22;52.07;101544.56;16108656;19;130059;-60
2023/09/08 22:33:05;;;;;;;10.85;4.45;;;;;;;24.20;52.04;101533.66;16111608;19;132063;-60
2023/09/08 22:38:27;;;;;;;9.98;4.50;;;;;;;24.19;51.95;101536.72;16111652;19;129455;-60
2023/09/08 22:43:49;;;;;;;8.10;4.20;;;;;;;24.19;52.00;101536.72;16107844;19;130115;-60
2023/09/08 22:49:12;;;;;;;9.40;4.72;;;;;;;24.18;51.87;101535.88;16107999;19;132016;-60
2023/09/08 22:54:34;;;;;;;8.07;4.07;;;;;;;24.18;51.99;101540.66;16112698;19;130421;-61
2023/09/08 22:59:56;;;;;;;7.38;4.32;;;;;;;24.17;51.58;101531.41;16105354;19;130195;-60
2023/09/08 23:05:18;;;;;;;13.07;4.10;;;;;;;24.15;51.79;101542.00;16108708;19;130900;-61
2023/09/08 23:10:40;;;;;;;6.25;3.72;;;;;;;24.15;51.66;101536.41;16122459;19;131692;-58
2023/09/08 23:16:03;;;;;;;6.93;3.75;;;;;;;24.15;51.97;101532.78;16125866;19;129611;-60
2023/09/08 23:21:25;;;;;;;8.13;3.78;;;;;;;24.13;52.02;101538.63;16125193;19;130361;-60
2023/09/08 23:26:48;;;;;;;8.55;3.65;;;;;;;24.12;51.83;101543.41;16127318;19;129583;-63
2023/09/08 23:32:11;;;;;;;6.22;3.97;;;;;;;24.12;51.74;101543.41;16120775;19;129801;-60
2023/09/08 23:37:33;;;;;;;7.22;3.67;;;;;;;24.11;51.84;101536.13;16122910;19;130376;-60
2023/09/08 23:42:55;;;;;;;6.32;3.78;;;;;;;24.11;51.63;101540.88;16122975;19;130294;-60
2023/09/08 23:48:17;;;;;;;6.95;4.15;;;;;;;24.10;51.68;101550.38;16118731;19;129912;-60
2023/09/08 23:53:39;;;;;;;5.72;4.13;;;;;;;24.09;51.68;101543.09;16120249;19;130892;-59
2023/09/08 23:59:03;;;;;;;3.97;3.13;;;;;;;24.09;51.71;101554.28;16120171;19;132371;-60
